createdAt,value
2023-04-30T00:00:56.785Z,73.84
2023-04-30T00:03:31.238Z,74.68
2023-04-30T00:05:57.873Z,74.85
2023-04-30T00:08:24.190Z,75.32
2023-04-30T00:10:51.113Z,74.93
2023-04-30T00:13:18.231Z,75.46
2023-04-30T00:15:44.623Z,75.78
2023-04-30T00:18:11.255Z,75.92
2023-04-30T00:24:32.769Z,76.72
2023-04-30T00:26:59.309Z,76.89
2023-04-30T00:29:25.863Z,77.60
2023-04-30T00:31:52.271Z,77.79
2023-04-30T00:34:18.705Z,77.57
2023-04-30T00:36:44.989Z,77.80
2023-04-30T00:39:11.326Z,77.82
2023-04-30T00:41:39.530Z,77.83
2023-04-30T00:44:05.937Z,77.94
2023-04-30T00:46:32.483Z,77.95
2023-04-30T00:49:01.644Z,78.24
2023-04-30T00:51:28.774Z,78.24
2023-04-30T00:53:55.720Z,78.35
2023-04-30T00:56:22.531Z,78.32
2023-04-30T00:58:50.730Z,78.22
2023-04-30T01:01:17.439Z,78.12
2023-04-30T01:03:44.113Z,78.33
2023-04-30T01:06:10.449Z,78.54
2023-04-30T01:08:36.822Z,78.80
2023-04-30T01:11:22.912Z,79.10
2023-04-30T01:14:07.913Z,79.32
2023-04-30T01:16:49.288Z,79.27
2023-04-30T01:19:44.517Z,78.99
2023-04-30T01:22:36.532Z,78.90
2023-04-30T01:25:25.976Z,78.69
2023-04-30T01:28:09.113Z,78.69
2023-04-30T01:30:36.873Z,78.77
2023-04-30T01:33:03.406Z,79.13
2023-04-30T01:36:08.198Z,79.18
2023-04-30T01:39:03.447Z,79.38
2023-04-30T01:41:56.695Z,79.44
2023-04-30T01:44:37.060Z,79.24
2023-04-30T01:47:09.063Z,79.72
2023-04-30T01:49:41.386Z,80.19
2023-04-30T01:52:40.482Z,80.33
2023-04-30T01:56:05.088Z,80.75
2023-04-30T01:58:31.985Z,81.14
2023-04-30T02:00:58.293Z,81.53
2023-04-30T02:03:24.814Z,82.06
2023-04-30T02:05:52.569Z,82.47
2023-04-30T02:08:18.926Z,82.79
2023-04-30T02:10:45.265Z,82.90
2023-04-30T02:13:11.663Z,82.94
2023-04-30T02:15:38.045Z,82.99
2023-04-30T02:18:04.397Z,83.17
2023-04-30T02:20:30.730Z,83.42
2023-04-30T02:23:00.684Z,83.66
2023-04-30T02:25:27.185Z,83.90
2023-04-30T02:27:53.584Z,84.11
2023-04-30T02:30:20.370Z,84.32
2023-04-30T02:32:47.382Z,84.51
2023-04-30T02:35:13.740Z,84.66
2023-04-30T02:37:40.386Z,84.89
2023-04-30T02:40:07.397Z,85.01
2023-04-30T02:42:33.787Z,85.11
2023-04-30T02:45:00.463Z,84.97
2023-04-30T02:47:27.015Z,84.68
2023-04-30T02:50:23.055Z,84.54
2023-04-30T02:52:49.336Z,84.43
2023-04-30T02:55:16.216Z,84.27
2023-04-30T02:57:42.542Z,84.01
2023-04-30T03:00:09.315Z,83.96
2023-04-30T03:02:35.886Z,83.80
2023-04-30T03:05:03.446Z,83.27
2023-04-30T03:07:30.199Z,82.91
2023-04-30T03:09:56.587Z,82.95
2023-04-30T03:12:23.146Z,82.91
2023-04-30T03:14:49.641Z,82.45
2023-04-30T03:17:16.002Z,81.46
2023-04-30T03:19:42.468Z,81.29
2023-04-30T03:23:11.976Z,81.30
2023-04-30T03:25:38.353Z,81.30
2023-04-30T03:28:04.664Z,81.32
2023-04-30T03:30:31.085Z,81.46
2023-04-30T03:32:57.554Z,81.72
2023-04-30T03:39:37.272Z,82.09
2023-04-30T03:42:03.672Z,81.78
2023-04-30T03:44:30.040Z,81.80
2023-04-30T03:46:56.510Z,81.65
2023-04-30T03:49:22.850Z,81.68
2023-04-30T03:51:49.155Z,81.45
2023-04-30T03:54:15.440Z,80.96
2023-04-30T03:56:41.694Z,80.52
2023-04-30T03:59:08.175Z,79.05
2023-04-30T04:01:34.842Z,78.41
2023-04-30T04:04:01.507Z,77.71
2023-04-30T04:06:28.079Z,77.43
2023-04-30T04:08:54.536Z,77.01
2023-04-30T04:11:20.978Z,76.67
2023-04-30T04:13:47.452Z,76.34
2023-04-30T04:16:13.921Z,75.81
2023-04-30T04:18:40.223Z,75.23
2023-04-30T04:21:07.304Z,73.10
2023-04-30T04:23:33.639Z,72.70
2023-04-30T04:25:59.931Z,72.54
2023-04-30T04:28:26.605Z,72.40
2023-04-30T04:30:53.174Z,71.99
2023-04-30T04:33:19.438Z,70.97
2023-04-30T04:35:45.840Z,70.46
2023-04-30T04:38:12.587Z,69.93
2023-04-30T04:40:39.468Z,69.30
2023-04-30T04:43:05.995Z,69.57
2023-04-30T04:45:32.998Z,69.28
2023-04-30T04:47:59.592Z,69.73
2023-04-30T04:50:25.957Z,69.49
2023-04-30T04:52:52.359Z,69.26
2023-04-30T04:55:18.646Z,69.67
2023-04-30T04:57:45.170Z,69.98
2023-04-30T05:00:12.562Z,70.43
2023-04-30T05:02:38.947Z,70.59
2023-04-30T05:05:10.597Z,70.75
2023-04-30T05:07:36.876Z,70.50
2023-04-30T05:10:03.451Z,69.76
2023-04-30T05:12:29.831Z,69.58
2023-04-30T05:14:56.218Z,69.50
2023-04-30T05:17:22.695Z,68.69
2023-04-30T05:19:50.072Z,68.45
2023-04-30T05:22:16.870Z,68.25
2023-04-30T05:24:43.368Z,68.31
2023-04-30T05:27:09.754Z,68.88
2023-04-30T05:29:36.498Z,68.65
2023-04-30T05:32:03.090Z,68.58
2023-04-30T05:34:29.621Z,68.36
2023-04-30T05:36:55.998Z,68.23
2023-04-30T05:39:24.001Z,68.10
2023-04-30T05:41:51.627Z,67.76
2023-04-30T05:44:19.510Z,68.27
2023-04-30T05:46:45.931Z,68.27
2023-04-30T05:49:12.558Z,68.20
2023-04-30T05:51:39.025Z,68.34
2023-04-30T05:54:05.513Z,68.20
2023-04-30T05:56:31.889Z,68.03
2023-04-30T05:58:58.342Z,67.25
2023-04-30T06:01:24.879Z,66.83
2023-04-30T06:03:51.717Z,66.43
2023-04-30T06:06:18.064Z,65.78
2023-04-30T06:08:44.889Z,65.48
2023-04-30T06:11:14.831Z,65.66
2023-04-30T06:13:41.190Z,64.94
2023-04-30T06:16:07.811Z,63.94
2023-04-30T06:18:34.162Z,64.31
2023-04-30T06:21:00.511Z,63.82
2023-04-30T06:23:52.387Z,63.31
2023-04-30T06:26:19.497Z,61.21
2023-04-30T06:28:46.463Z,59.14
2023-04-30T06:31:13.724Z,57.11
2023-04-30T06:33:40.088Z,54.53
2023-04-30T06:36:06.506Z,53.07
2023-04-30T06:38:32.943Z,51.23
2023-04-30T06:40:59.351Z,50.78
2023-04-30T06:43:25.803Z,48.08
2023-04-30T06:46:17.185Z,46.80
2023-04-30T06:48:43.533Z,45.44
2023-04-30T06:51:10.908Z,42.97
2023-04-30T06:53:37.635Z,41.93
2023-04-30T06:56:04.184Z,40.93
2023-04-30T06:58:30.472Z,40.66
2023-04-30T07:00:57.589Z,40.62
2023-04-30T07:03:23.982Z,40.57
2023-04-30T07:05:51.087Z,40.14
2023-04-30T07:08:17.478Z,39.81
2023-04-30T07:10:43.749Z,39.05
2023-04-30T07:13:10.088Z,38.33
2023-04-30T07:15:37.455Z,37.64
2023-04-30T07:18:03.727Z,37.89
2023-04-30T07:20:30.133Z,38.83
2023-04-30T07:22:56.386Z,38.84
2023-04-30T07:25:22.715Z,39.65
2023-04-30T07:27:52.261Z,38.85
2023-04-30T07:30:18.600Z,39.88
2023-04-30T07:32:44.883Z,41.53
2023-04-30T07:35:11.262Z,43.24
2023-04-30T07:37:39.786Z,43.08
2023-04-30T07:40:15.058Z,43.21
2023-04-30T07:42:44.528Z,42.29
2023-04-30T07:45:12.712Z,41.59
2023-04-30T07:47:39.109Z,40.38
2023-04-30T07:50:05.964Z,40.09
2023-04-30T07:52:32.319Z,40.09
2023-04-30T07:54:58.635Z,37.94
2023-04-30T07:57:28.134Z,37.85
2023-04-30T07:59:55.364Z,38.32
2023-04-30T08:02:22.009Z,36.22
2023-04-30T08:04:48.795Z,35.79
2023-04-30T08:07:15.397Z,35.62
2023-04-30T08:09:41.793Z,35.09
2023-04-30T08:12:09.656Z,35.44
2023-04-30T08:14:35.914Z,35.77
2023-04-30T08:17:02.659Z,35.21
2023-04-30T08:19:29.107Z,34.64
2023-04-30T08:21:55.625Z,35.59
2023-04-30T08:24:21.914Z,36.79
2023-04-30T08:26:48.640Z,36.77
2023-04-30T08:29:14.931Z,35.25
2023-04-30T08:31:41.872Z,34.65
2023-04-30T08:34:08.185Z,34.35
2023-04-30T08:36:34.457Z,34.21
2023-04-30T08:39:01.458Z,33.60
2023-04-30T08:41:32.321Z,34.95
2023-04-30T08:44:01.020Z,36.20
2023-04-30T08:46:31.449Z,35.47
2023-04-30T08:48:58.064Z,33.25
2023-04-30T08:51:30.650Z,33.75
2023-04-30T08:53:57.252Z,34.64
2023-04-30T08:56:27.468Z,33.59
2023-04-30T08:58:53.811Z,33.82
2023-04-30T09:01:20.624Z,32.41
2023-04-30T09:03:47.049Z,32.90
2023-04-30T09:06:16.953Z,32.82
2023-04-30T09:08:48.863Z,31.59
2023-04-30T09:11:27.337Z,30.52
2023-04-30T09:13:59.151Z,30.44
2023-04-30T09:16:27.349Z,30.11
2023-04-30T09:18:54.071Z,30.52
2023-04-30T09:21:34.902Z,30.88
2023-04-30T09:24:05.319Z,30.50
2023-04-30T09:26:37.534Z,29.32
2023-04-30T09:29:08.224Z,27.85
2023-04-30T09:31:36.149Z,27.99
2023-04-30T09:34:03.684Z,29.09
2023-04-30T09:36:31.307Z,28.85
2023-04-30T09:39:16.824Z,28.71
2023-04-30T09:41:43.778Z,29.08
2023-04-30T09:44:27.918Z,29.65
2023-04-30T09:46:55.637Z,27.75
2023-04-30T09:49:22.015Z,28.33
2023-04-30T09:51:53.957Z,29.55
2023-04-30T09:54:22.882Z,27.73
2023-04-30T09:56:52.951Z,27.48
2023-04-30T09:59:22.297Z,28.08
2023-04-30T10:01:51.797Z,28.56
2023-04-30T10:04:20.202Z,28.82
2023-04-30T10:06:47.509Z,27.94
2023-04-30T10:09:15.383Z,25.67
2023-04-30T10:11:44.048Z,25.26
2023-04-30T10:14:12.285Z,24.58
2023-04-30T10:17:07.079Z,24.70
2023-04-30T10:20:05.959Z,24.80
2023-04-30T10:22:34.354Z,24.57
2023-04-30T10:25:01.649Z,22.94
2023-04-30T10:27:32.611Z,24.18
2023-04-30T10:29:59.411Z,24.55
2023-04-30T10:32:36.252Z,24.82
2023-04-30T10:35:20.127Z,23.60
2023-04-30T10:37:49.879Z,20.86
2023-04-30T10:40:18.487Z,20.47
2023-04-30T10:42:47.074Z,20.19
2023-04-30T10:45:38.826Z,20.58
2023-04-30T10:48:06.353Z,21.70
2023-04-30T10:50:38.888Z,21.20
2023-04-30T10:53:06.509Z,20.93
2023-04-30T10:55:33.103Z,19.64
2023-04-30T10:57:59.487Z,19.01
2023-04-30T11:00:28.326Z,19.90
2023-04-30T11:03:03.347Z,20.51
2023-04-30T11:05:36.782Z,19.64
2023-04-30T11:08:03.277Z,20.77
2023-04-30T11:10:34.091Z,20.74
2023-04-30T11:13:09.500Z,20.25
2023-04-30T11:15:41.496Z,20.91
2023-04-30T11:18:08.897Z,20.95
2023-04-30T11:20:41.321Z,20.00
2023-04-30T11:23:24.962Z,19.66
2023-04-30T11:25:54.656Z,19.69
2023-04-30T11:28:24.114Z,19.68
2023-04-30T11:30:58.358Z,19.93
2023-04-30T11:33:26.328Z,20.21
2023-04-30T11:35:55.168Z,19.54
2023-04-30T11:38:26.732Z,19.15
2023-04-30T11:40:56.316Z,19.27
2023-04-30T11:43:28.486Z,19.68
2023-04-30T11:46:07.585Z,19.84
2023-04-30T11:48:36.097Z,20.47
2023-04-30T11:51:24.394Z,20.15
2023-04-30T11:53:52.122Z,19.91
2023-04-30T11:56:21.005Z,19.68
2023-04-30T11:58:48.669Z,19.69
2023-04-30T12:01:15.851Z,20.09
2023-04-30T12:03:49.790Z,18.74
2023-04-30T12:06:25.019Z,19.08
2023-04-30T12:09:11.096Z,18.99
2023-04-30T12:11:38.152Z,19.40
2023-04-30T12:14:10.327Z,20.14
2023-04-30T12:16:45.280Z,19.01
2023-04-30T12:19:12.300Z,19.10
2023-04-30T12:21:40.646Z,19.69
2023-04-30T12:24:07.826Z,19.15
2023-04-30T12:26:39.373Z,19.29
2023-04-30T12:29:10.247Z,18.70
2023-04-30T12:31:38.092Z,18.82
2023-04-30T12:34:09.554Z,19.48
2023-04-30T12:36:41.764Z,18.68
2023-04-30T12:39:09.967Z,18.34
2023-04-30T12:41:41.612Z,19.25
2023-04-30T12:44:26.814Z,19.48
2023-04-30T12:47:00.249Z,19.42
2023-04-30T12:53:44.992Z,19.43
2023-04-30T12:56:16.950Z,18.37
2023-04-30T12:58:46.591Z,19.26
2023-04-30T13:01:15.386Z,19.99
2023-04-30T13:03:42.361Z,20.20
2023-04-30T13:06:09.751Z,20.46
2023-04-30T13:08:45.800Z,19.31
2023-04-30T13:11:16.584Z,18.23
2023-04-30T13:13:42.958Z,18.55
2023-04-30T13:16:09.362Z,18.35
2023-04-30T13:18:36.668Z,18.52
2023-04-30T13:21:03.420Z,19.07
2023-04-30T13:23:31.952Z,18.61
2023-04-30T13:26:00.510Z,18.05
2023-04-30T13:28:26.779Z,18.91
2023-04-30T13:30:53.163Z,19.20
2023-04-30T13:33:20.273Z,19.04
2023-04-30T13:35:47.245Z,18.93
2023-04-30T13:38:13.542Z,18.94
2023-04-30T13:40:40.518Z,18.68
2023-04-30T13:43:07.327Z,18.47
2023-04-30T13:45:33.693Z,18.50
2023-04-30T13:48:00.236Z,18.42
2023-04-30T13:50:26.706Z,18.35
2023-04-30T13:52:53.244Z,18.29
2023-04-30T13:55:19.570Z,19.14
2023-04-30T13:57:46.163Z,18.86
2023-04-30T14:00:13.354Z,19.13
2023-04-30T14:02:39.898Z,18.66
2023-04-30T14:06:22.262Z,18.48
2023-04-30T14:08:48.735Z,17.99
2023-04-30T14:11:16.383Z,18.01
2023-04-30T14:13:43.421Z,17.69
2023-04-30T14:16:09.861Z,17.94
2023-04-30T14:18:36.567Z,17.72
2023-04-30T14:21:03.005Z,17.68
2023-04-30T14:23:38.635Z,17.72
2023-04-30T14:29:06.065Z,18.05
2023-04-30T14:33:19.891Z,17.47
2023-04-30T14:35:47.804Z,17.13
2023-04-30T14:39:17.991Z,16.86
2023-04-30T14:41:45.780Z,16.49
2023-04-30T14:44:13.461Z,16.44
2023-04-30T14:46:41.359Z,16.60
2023-04-30T14:49:09.116Z,16.81
2023-04-30T14:51:36.829Z,16.82
2023-04-30T14:54:04.553Z,16.79
2023-04-30T14:56:32.616Z,16.38
2023-04-30T14:59:00.411Z,15.78
2023-04-30T15:01:30.411Z,15.72
2023-04-30T15:03:58.989Z,15.49
2023-04-30T15:06:27.037Z,15.56
2023-04-30T15:09:42.621Z,15.76
2023-04-30T15:12:42.610Z,14.81
2023-04-30T15:15:10.751Z,14.29
2023-04-30T15:17:38.776Z,14.50
2023-04-30T15:20:07.679Z,14.70
2023-04-30T15:22:35.502Z,14.73
2023-04-30T15:26:01.109Z,15.12
2023-04-30T15:28:29.031Z,14.85
2023-04-30T15:30:57.071Z,14.48
2023-04-30T15:33:29.062Z,14.24
2023-04-30T15:35:57.405Z,14.65
2023-04-30T15:38:25.108Z,14.23
2023-04-30T15:40:53.006Z,14.53
2023-04-30T15:43:21.551Z,14.65
2023-04-30T15:45:50.704Z,14.53
2023-04-30T15:48:18.486Z,14.65
2023-04-30T15:50:52.549Z,14.72
2023-04-30T15:53:20.204Z,14.84
2023-04-30T15:55:49.161Z,14.84
2023-04-30T15:58:17.040Z,14.63
2023-04-30T16:00:45.005Z,15.21
2023-04-30T16:03:12.905Z,15.11
2023-04-30T16:05:42.552Z,15.44
2023-04-30T16:08:15.257Z,15.53
2023-04-30T16:10:43.355Z,16.06
2023-04-30T16:13:10.996Z,17.21
2023-04-30T16:15:38.639Z,19.12
2023-04-30T16:18:06.822Z,20.80
2023-04-30T16:20:34.919Z,21.45
2023-04-30T16:23:04.861Z,22.68
2023-04-30T16:25:32.706Z,23.67
2023-04-30T16:28:00.473Z,24.72
2023-04-30T16:30:28.566Z,25.26
2023-04-30T16:32:57.023Z,25.73
2023-04-30T16:35:25.094Z,26.99
2023-04-30T16:37:54.982Z,27.37
2023-04-30T16:40:22.713Z,27.83
2023-04-30T16:42:50.286Z,28.51
2023-04-30T16:45:18.291Z,28.27
2023-04-30T16:47:46.169Z,29.22
2023-04-30T16:50:14.206Z,30.30
2023-04-30T16:52:42.007Z,30.36
2023-04-30T16:55:10.516Z,30.08
2023-04-30T16:57:38.142Z,30.33
2023-04-30T17:00:14.240Z,30.36
2023-04-30T17:02:45.416Z,30.36
2023-04-30T17:05:13.378Z,30.70
2023-04-30T17:07:43.325Z,31.45
2023-04-30T17:10:12.020Z,31.26
2023-04-30T17:12:40.164Z,31.21
2023-04-30T17:15:08.326Z,31.49
2023-04-30T17:17:36.090Z,32.43
2023-04-30T17:20:04.109Z,32.55
2023-04-30T17:22:57.230Z,33.09
2023-04-30T17:25:25.489Z,33.45
2023-04-30T17:27:53.176Z,34.11
2023-04-30T17:30:21.147Z,34.36
2023-04-30T17:32:48.902Z,33.83
2023-04-30T17:35:17.098Z,34.58
2023-04-30T17:38:58.012Z,35.52
2023-04-30T17:41:26.381Z,34.94
2023-04-30T17:43:54.090Z,35.66
2023-04-30T17:46:22.467Z,35.79
2023-04-30T17:48:50.170Z,35.91
2023-04-30T17:51:18.446Z,36.02
2023-04-30T17:53:46.298Z,36.29
2023-04-30T17:56:15.100Z,36.19
2023-04-30T17:58:42.940Z,36.55
2023-04-30T18:01:10.603Z,36.94
2023-04-30T18:03:38.419Z,37.08
2023-04-30T18:06:06.406Z,37.27
2023-04-30T18:08:34.113Z,37.49
2023-04-30T18:11:03.526Z,37.78
2023-04-30T18:13:31.658Z,38.38
2023-04-30T18:15:59.442Z,38.35
2023-04-30T18:18:27.170Z,38.38
2023-04-30T18:20:55.758Z,38.55
2023-04-30T18:23:23.410Z,38.88
2023-04-30T18:25:51.091Z,39.30
2023-04-30T18:28:18.896Z,39.36
2023-04-30T18:30:46.875Z,39.33
2023-04-30T18:33:14.789Z,39.90
2023-04-30T18:36:08.566Z,40.24
2023-04-30T18:38:38.780Z,40.69
2023-04-30T18:41:07.387Z,40.75
2023-04-30T18:43:37.563Z,40.82
2023-04-30T18:46:06.022Z,41.48
2023-04-30T18:48:34.208Z,41.56
2023-04-30T18:51:01.881Z,41.76
2023-04-30T18:53:29.586Z,41.85
2023-04-30T18:55:58.058Z,42.05
2023-04-30T18:58:25.772Z,42.26
2023-04-30T19:00:57.942Z,42.62
2023-04-30T19:03:25.998Z,42.79
2023-04-30T19:05:56.715Z,43.12
2023-04-30T19:08:24.476Z,43.55
2023-04-30T19:10:53.271Z,43.81
2023-04-30T19:13:21.517Z,43.76
2023-04-30T19:15:49.383Z,43.79
2023-04-30T19:18:20.262Z,44.50
2023-04-30T19:21:00.239Z,44.46
2023-04-30T19:23:32.547Z,44.95
2023-04-30T19:26:00.402Z,45.07
2023-04-30T19:28:28.180Z,45.13
2023-04-30T19:30:58.475Z,45.50
2023-04-30T19:33:26.322Z,45.85
2023-04-30T19:35:55.145Z,46.31
2023-04-30T19:38:23.776Z,46.63
2023-04-30T19:40:53.167Z,47.32
2023-04-30T19:43:22.651Z,47.54
2023-04-30T19:45:55.404Z,47.93
2023-04-30T19:48:24.621Z,48.01
2023-04-30T19:50:53.693Z,48.41
2023-04-30T19:53:22.840Z,48.47
2023-04-30T19:55:51.837Z,49.02
2023-04-30T19:58:20.267Z,49.70
2023-04-30T20:01:09.206Z,50.02
2023-04-30T20:03:37.149Z,50.59
2023-04-30T20:06:05.941Z,50.94
2023-04-30T20:08:33.712Z,51.54
2023-04-30T20:11:03.293Z,52.18
2023-04-30T20:13:31.620Z,52.49
2023-04-30T20:15:59.360Z,52.58
2023-04-30T20:18:27.155Z,52.83
2023-04-30T20:20:57.828Z,53.23
2023-04-30T20:23:25.490Z,53.24
2023-04-30T20:25:55.036Z,53.88
2023-04-30T20:28:23.426Z,54.30
2023-04-30T20:30:51.547Z,54.22
2023-04-30T20:33:19.429Z,54.59
2023-04-30T20:35:47.783Z,54.90
2023-04-30T20:38:19.534Z,55.46
2023-04-30T20:40:47.801Z,56.06
2023-04-30T20:43:16.366Z,56.02
2023-04-30T20:45:58.919Z,56.44
2023-04-30T20:48:27.082Z,56.86
2023-04-30T20:50:57.632Z,56.84
2023-04-30T20:53:25.354Z,56.65
2023-04-30T20:55:58.293Z,56.79
2023-04-30T20:58:27.524Z,57.38
2023-04-30T21:00:55.338Z,57.60
2023-04-30T21:03:23.406Z,57.79
2023-04-30T21:05:51.628Z,58.16
2023-04-30T21:08:19.286Z,58.53
2023-04-30T21:10:47.030Z,58.67
2023-04-30T21:13:15.008Z,59.17
2023-04-30T21:15:43.363Z,59.58
2023-04-30T21:18:11.298Z,59.91
2023-04-30T21:20:38.953Z,60.39
2023-04-30T21:23:06.566Z,60.71
2023-04-30T21:25:36.935Z,60.91
2023-04-30T21:28:04.571Z,60.85
2023-04-30T21:30:32.293Z,61.09
2023-04-30T21:33:00.108Z,61.69
2023-04-30T21:35:30.378Z,61.59
2023-04-30T21:37:58.095Z,60.81
2023-04-30T21:40:25.835Z,59.92
2023-04-30T21:42:53.437Z,59.90
2023-04-30T21:45:21.366Z,60.20
2023-04-30T21:47:49.125Z,60.07
2023-04-30T21:50:17.034Z,60.25
2023-04-30T21:52:44.736Z,60.61
2023-04-30T21:55:12.521Z,60.67
2023-04-30T21:57:40.174Z,60.70
2023-04-30T22:00:18.920Z,60.69
2023-04-30T22:02:48.851Z,60.62
2023-04-30T22:05:21.242Z,60.57
2023-04-30T22:07:49.078Z,60.66
2023-04-30T22:10:16.711Z,60.92
2023-04-30T22:12:47.384Z,60.90
2023-04-30T22:15:15.579Z,61.05
2023-04-30T22:17:43.366Z,61.41
2023-04-30T22:20:11.585Z,61.70
2023-04-30T22:22:39.503Z,61.90
2023-04-30T22:25:07.633Z,61.86
2023-04-30T22:27:35.341Z,61.95
2023-04-30T22:30:03.952Z,61.69
2023-04-30T22:32:32.278Z,61.79
2023-04-30T22:35:00.048Z,61.99
2023-04-30T22:37:27.677Z,62.10
2023-04-30T22:39:55.685Z,62.35
2023-04-30T22:42:23.685Z,62.67
2023-04-30T22:44:52.092Z,62.77
2023-04-30T22:47:19.794Z,62.86
2023-04-30T22:49:47.736Z,62.91
2023-04-30T22:52:15.570Z,63.25
2023-04-30T22:54:43.368Z,63.56
2023-04-30T22:57:11.175Z,63.73
2023-04-30T23:00:55.189Z,63.85
2023-04-30T23:03:22.903Z,64.19
2023-04-30T23:05:51.612Z,64.73
2023-04-30T23:08:19.526Z,65.12
2023-04-30T23:10:47.870Z,65.27
2023-04-30T23:13:17.367Z,65.38
2023-04-30T23:15:45.400Z,65.59
2023-04-30T23:18:13.218Z,65.90
2023-04-30T23:20:40.929Z,66.01
2023-04-30T23:23:08.529Z,66.13
2023-04-30T23:25:36.860Z,66.52
2023-04-30T23:28:05.042Z,66.59
2023-04-30T23:30:32.825Z,66.58
2023-04-30T23:33:00.903Z,66.84
2023-04-30T23:35:28.530Z,66.96
2023-04-30T23:37:56.271Z,67.17
2023-04-30T23:40:24.024Z,67.39
2023-04-30T23:42:51.644Z,67.30
2023-04-30T23:46:09.388Z,67.35
2023-04-30T23:48:37.445Z,67.68
2023-04-30T23:51:08.305Z,67.68
2023-04-30T23:53:36.149Z,67.73
2023-04-30T23:56:03.906Z,67.91
2023-04-30T23:58:31.650Z,68.12
